createdAt,value
2022-11-01T00:02:24.290Z,17.42
2022-11-01T00:04:52.805Z,17.42
2022-11-01T00:07:20.915Z,17.39
2022-11-01T00:09:48.967Z,17.43
2022-11-01T00:12:17.168Z,17.44
2022-11-01T00:14:45.258Z,17.48
2022-11-01T00:17:13.367Z,17.47
2022-11-01T00:19:41.415Z,17.48
2022-11-01T00:22:09.530Z,17.47
2022-11-01T00:24:37.581Z,17.52
2022-11-01T00:27:05.689Z,17.52
2022-11-01T00:29:33.773Z,17.55
2022-11-01T00:32:01.951Z,17.52
2022-11-01T00:34:30.042Z,17.54
2022-11-01T00:36:58.137Z,17.52
2022-11-01T00:39:30.545Z,17.53
2022-11-01T00:41:59.592Z,17.50
2022-11-01T00:44:27.642Z,17.49
2022-11-01T00:46:55.749Z,17.48
2022-11-01T00:49:23.830Z,17.49
2022-11-01T00:51:52.396Z,17.49
2022-11-01T00:54:20.451Z,17.48
2022-11-01T00:56:48.557Z,17.44
2022-11-01T00:59:16.615Z,17.45
2022-11-01T01:01:44.815Z,17.46
2022-11-01T01:04:13.020Z,17.49
2022-11-01T01:06:41.226Z,17.51
2022-11-01T01:09:11.248Z,17.52
2022-11-01T01:11:39.460Z,17.52
2022-11-01T01:14:07.510Z,17.53
2022-11-01T01:16:35.769Z,17.47
2022-11-01T01:19:04.517Z,17.48
2022-11-01T01:21:32.627Z,17.52
2022-11-01T01:24:01.040Z,17.54
2022-11-01T01:26:29.150Z,17.53
2022-11-01T01:28:57.325Z,17.52
2022-11-01T01:31:25.527Z,17.55
2022-11-01T01:33:53.608Z,17.57
2022-11-01T01:36:21.811Z,17.61
2022-11-01T01:38:53.286Z,17.65
2022-11-01T01:41:40.441Z,17.67
2022-11-01T01:44:51.821Z,17.67
2022-11-01T01:47:28.935Z,17.69
2022-11-01T01:50:29.888Z,17.70
2022-11-01T01:53:19.669Z,17.76
2022-11-01T01:56:18.591Z,17.79
2022-11-01T01:59:01.577Z,17.85
2022-11-01T02:01:30.342Z,17.77
2022-11-01T02:04:03.240Z,17.72
2022-11-01T02:06:33.632Z,17.71
2022-11-01T02:09:05.525Z,17.74
2022-11-01T02:11:34.233Z,17.75
2022-11-01T02:14:02.915Z,17.79
2022-11-01T02:17:08.561Z,17.77
2022-11-01T02:20:04.696Z,17.84
2022-11-01T02:22:46.943Z,17.84
2022-11-01T02:25:20.660Z,17.82
2022-11-01T02:28:06.894Z,18.02
2022-11-01T02:30:55.847Z,18.02
2022-11-01T02:33:48.534Z,18.03
2022-11-01T02:36:47.819Z,18.06
2022-11-01T02:39:29.315Z,18.10
2022-11-01T02:42:21.757Z,18.09
2022-11-01T02:45:00.160Z,18.11
2022-11-01T02:47:31.024Z,18.04
2022-11-01T02:50:07.965Z,18.04
2022-11-01T02:52:40.636Z,18.05
2022-11-01T02:55:34.250Z,18.09
2022-11-01T02:58:32.116Z,18.17
2022-11-01T03:01:00.243Z,18.21
2022-11-01T03:03:36.081Z,18.21
2022-11-01T03:06:12.329Z,18.22
2022-11-01T03:08:55.266Z,18.24
2022-11-01T03:11:55.267Z,18.24
2022-11-01T03:14:32.708Z,18.22
2022-11-01T03:17:12.216Z,18.16
2022-11-01T03:20:11.354Z,18.12
2022-11-01T03:22:48.461Z,18.12
2022-11-01T03:25:35.604Z,18.14
2022-11-01T03:28:29.269Z,18.17
2022-11-01T03:31:09.953Z,18.17
2022-11-01T03:33:46.550Z,18.20
2022-11-01T03:36:20.012Z,18.23
2022-11-01T03:39:03.601Z,18.25
2022-11-01T03:41:42.963Z,18.28
2022-11-01T03:44:13.897Z,18.34
2022-11-01T03:46:43.205Z,18.37
2022-11-01T03:49:28.063Z,18.43
2022-11-01T03:51:56.294Z,18.51
2022-11-01T03:54:24.493Z,18.53
2022-11-01T03:56:53.030Z,18.57
2022-11-01T03:59:21.112Z,18.63
2022-11-01T04:01:50.075Z,18.62
2022-11-01T04:04:18.239Z,18.69
2022-11-01T04:06:46.346Z,18.74
2022-11-01T04:09:14.403Z,18.77
2022-11-01T04:11:43.709Z,18.81
2022-11-01T04:14:30.278Z,18.85
2022-11-01T04:17:16.836Z,18.89
2022-11-01T04:20:03.132Z,18.88
2022-11-01T04:22:31.238Z,18.91
2022-11-01T04:24:59.324Z,18.94
2022-11-01T04:27:27.404Z,18.94
2022-11-01T04:29:55.463Z,18.95
2022-11-01T04:32:23.569Z,18.94
2022-11-01T04:34:51.655Z,18.95
2022-11-01T04:37:19.736Z,18.98
2022-11-01T04:39:47.793Z,18.97
2022-11-01T04:42:15.994Z,18.83
2022-11-01T04:44:46.864Z,18.35
2022-11-01T04:47:14.941Z,18.29
2022-11-01T04:49:43.004Z,18.20
2022-11-01T04:52:11.132Z,18.23
2022-11-01T04:54:39.168Z,18.22
2022-11-01T04:57:07.277Z,18.14
2022-11-01T04:59:35.236Z,18.14
2022-11-01T05:02:03.370Z,18.12
2022-11-01T05:04:31.497Z,18.11
2022-11-01T05:06:59.699Z,18.06
2022-11-01T05:09:27.782Z,18.10
2022-11-01T05:11:55.983Z,18.10
2022-11-01T05:14:24.666Z,18.09
2022-11-01T05:16:56.857Z,18.07
2022-11-01T05:19:25.057Z,18.07
2022-11-01T05:21:53.499Z,17.99
2022-11-01T05:24:21.466Z,17.94
2022-11-01T05:26:50.861Z,17.96
2022-11-01T05:29:24.759Z,18.00
2022-11-01T05:31:59.511Z,18.08
2022-11-01T05:34:27.687Z,18.14
2022-11-01T05:36:55.792Z,18.12
2022-11-01T05:39:23.850Z,18.16
2022-11-01T05:41:51.957Z,18.19
2022-11-01T05:44:19.927Z,18.27
2022-11-01T05:46:48.367Z,18.29
2022-11-01T05:49:16.421Z,18.24
2022-11-01T05:51:44.531Z,18.22
2022-11-01T05:54:12.593Z,18.20
2022-11-01T05:56:40.698Z,18.17
2022-11-01T05:59:08.751Z,18.17
2022-11-01T06:01:36.921Z,18.12
2022-11-01T06:04:05.395Z,18.08
2022-11-01T06:06:33.860Z,18.10
2022-11-01T06:09:03.120Z,18.09
2022-11-01T06:11:31.226Z,18.09
2022-11-01T06:13:59.792Z,18.08
2022-11-01T06:16:28.237Z,18.08
2022-11-01T06:18:56.289Z,18.11
2022-11-01T06:21:27.623Z,18.13
2022-11-01T06:23:58.002Z,18.24
2022-11-01T06:26:25.939Z,18.23
2022-11-01T06:28:54.142Z,18.19
2022-11-01T06:31:22.248Z,18.15
2022-11-01T06:33:50.697Z,18.17
2022-11-01T06:36:18.746Z,18.23
2022-11-01T06:38:46.856Z,18.28
2022-11-01T06:41:15.300Z,18.22
2022-11-01T06:43:44.582Z,18.28
2022-11-01T06:46:12.637Z,18.24
2022-11-01T06:48:40.748Z,18.25
2022-11-01T06:51:08.825Z,18.21
2022-11-01T06:53:37.008Z,18.18
2022-11-01T06:56:18.575Z,18.23
2022-11-01T06:58:50.474Z,18.21
2022-11-01T07:01:22.743Z,18.18
2022-11-01T07:03:52.279Z,18.21
2022-11-01T07:06:20.725Z,18.26
2022-11-01T07:08:48.804Z,18.30
2022-11-01T07:11:16.861Z,18.29
2022-11-01T07:13:45.303Z,18.31
2022-11-01T07:16:13.269Z,18.37
2022-11-01T07:18:43.052Z,18.35
2022-11-01T07:21:11.599Z,18.37
2022-11-01T07:23:39.829Z,18.44
2022-11-01T07:26:07.901Z,18.47
2022-11-01T07:28:36.203Z,18.47
2022-11-01T07:31:04.427Z,18.53
2022-11-01T07:33:33.110Z,18.54
2022-11-01T07:36:02.733Z,18.59
2022-11-01T07:38:31.326Z,18.60
2022-11-01T07:40:59.610Z,18.47
2022-11-01T07:43:27.723Z,18.59
2022-11-01T07:46:00.939Z,18.64
2022-11-01T07:48:29.159Z,18.59
2022-11-01T07:50:57.699Z,18.56
2022-11-01T07:53:26.170Z,18.61
2022-11-01T07:55:54.228Z,18.44
2022-11-01T07:58:22.333Z,18.63
2022-11-01T08:00:51.820Z,18.70
2022-11-01T08:03:20.631Z,18.80
2022-11-01T08:05:49.083Z,18.81
2022-11-01T08:08:18.029Z,18.85
2022-11-01T08:10:46.838Z,18.89
2022-11-01T08:13:18.752Z,18.83
2022-11-01T08:15:48.485Z,18.82
2022-11-01T08:18:21.607Z,18.74
2022-11-01T08:20:50.770Z,18.68
2022-11-01T08:23:18.997Z,18.61
2022-11-01T08:25:47.323Z,18.55
2022-11-01T08:28:18.763Z,18.69
2022-11-01T08:30:49.580Z,18.72
2022-11-01T08:33:18.065Z,18.77
2022-11-01T08:35:50.396Z,18.81
2022-11-01T08:38:19.621Z,18.81
2022-11-01T08:40:48.414Z,18.78
2022-11-01T08:43:17.096Z,18.87
2022-11-01T08:45:45.423Z,18.87
2022-11-01T08:48:14.196Z,18.93
2022-11-01T08:50:42.279Z,18.92
2022-11-01T08:53:14.588Z,18.91
2022-11-01T08:55:42.862Z,18.93
2022-11-01T08:58:11.720Z,19.02
2022-11-01T09:00:39.794Z,18.78
2022-11-01T09:03:08.739Z,18.64
2022-11-01T09:05:37.137Z,18.80
2022-11-01T09:08:05.800Z,18.86
2022-11-01T09:10:34.288Z,18.88
2022-11-01T09:13:02.718Z,19.00
2022-11-01T09:15:31.382Z,19.06
2022-11-01T09:17:59.586Z,19.28
2022-11-01T09:20:28.483Z,19.27
2022-11-01T09:22:57.337Z,19.39
2022-11-01T09:25:25.530Z,19.52
2022-11-01T09:27:58.041Z,19.57
2022-11-01T09:30:26.957Z,19.57
2022-11-01T09:32:55.070Z,19.66
2022-11-01T09:35:23.870Z,19.70
2022-11-01T09:37:59.366Z,19.82
2022-11-01T09:40:36.224Z,19.83
2022-11-01T09:43:09.790Z,19.93
2022-11-01T09:45:37.891Z,19.86
2022-11-01T09:48:07.558Z,19.96
2022-11-01T09:50:38.141Z,20.04
2022-11-01T09:53:17.887Z,20.15
2022-11-01T09:56:22.781Z,20.19
2022-11-01T09:59:05.176Z,20.30
2022-11-01T10:02:09.988Z,20.04
2022-11-01T10:05:25.579Z,19.84
2022-11-01T10:08:15.480Z,19.98
2022-11-01T10:11:05.901Z,19.72
2022-11-01T10:14:04.825Z,19.43
2022-11-01T10:16:43.345Z,19.77
2022-11-01T10:19:23.908Z,19.88
2022-11-01T10:22:01.182Z,19.40
2022-11-01T10:24:40.837Z,19.65
2022-11-01T10:27:43.008Z,19.45
2022-11-01T10:30:18.256Z,19.48
2022-11-01T10:32:52.721Z,19.83
2022-11-01T10:35:30.763Z,19.74
2022-11-01T10:39:04.601Z,20.05
2022-11-01T10:41:43.497Z,20.14
2022-11-01T10:44:28.715Z,19.73
2022-11-01T10:46:59.823Z,19.74
2022-11-01T10:50:00.525Z,19.95
2022-11-01T10:52:48.662Z,19.81
2022-11-01T10:55:39.440Z,19.62
2022-11-01T10:58:33.883Z,19.58
2022-11-01T11:01:05.681Z,19.73
2022-11-01T11:03:34.394Z,19.68
2022-11-01T11:06:08.811Z,19.66
2022-11-01T11:08:41.955Z,19.92
2022-11-01T11:11:16.616Z,19.89
2022-11-01T11:13:53.860Z,19.76
2022-11-01T11:16:48.924Z,19.75
2022-11-01T11:19:39.103Z,19.95
2022-11-01T11:22:09.906Z,20.06
2022-11-01T11:24:41.349Z,20.20
2022-11-01T11:27:30.933Z,20.26
2022-11-01T11:30:05.606Z,20.18
2022-11-01T11:32:40.664Z,20.01
2022-11-01T11:35:14.365Z,19.93
2022-11-01T11:38:02.750Z,19.56
2022-11-01T11:40:51.234Z,19.21
2022-11-01T11:43:34.333Z,19.03
2022-11-01T11:46:21.729Z,18.94
2022-11-01T11:49:01.366Z,18.87
2022-11-01T11:51:33.334Z,19.06
2022-11-01T11:54:28.902Z,18.75
2022-11-01T11:57:18.102Z,18.56
2022-11-01T11:59:54.704Z,18.54
2022-11-01T12:02:36.426Z,18.64
2022-11-01T12:05:18.228Z,18.77
2022-11-01T12:07:49.551Z,18.56
2022-11-01T12:10:46.434Z,18.82
2022-11-01T12:13:37.230Z,18.79
2022-11-01T12:16:21.580Z,19.02
2022-11-01T12:19:03.962Z,18.79
2022-11-01T12:21:41.764Z,18.86
2022-11-01T12:24:27.042Z,18.80
2022-11-01T12:27:04.961Z,18.98
2022-11-01T12:30:00.998Z,19.13
2022-11-01T12:32:58.456Z,19.34
2022-11-01T12:35:46.580Z,19.39
2022-11-01T12:38:43.845Z,18.93
2022-11-01T12:41:17.666Z,19.02
2022-11-01T12:44:06.168Z,19.16
2022-11-01T12:46:46.269Z,19.32
2022-11-01T12:49:35.594Z,19.31
2022-11-01T12:52:16.478Z,19.14
2022-11-01T12:55:05.567Z,18.69
2022-11-01T12:57:34.993Z,18.88
2022-11-01T13:00:05.327Z,19.10
2022-11-01T13:03:24.313Z,18.91
2022-11-01T13:06:19.490Z,18.91
2022-11-01T13:09:02.351Z,18.81
2022-11-01T13:11:50.694Z,19.03
2022-11-01T13:14:58.385Z,18.91
2022-11-01T13:17:54.087Z,19.13
2022-11-01T13:20:41.107Z,19.33
2022-11-01T13:23:38.106Z,19.34
2022-11-01T13:26:35.347Z,19.13
2022-11-01T13:29:46.380Z,19.06
2022-11-01T13:33:04.030Z,18.74
2022-11-01T13:35:44.478Z,18.77
2022-11-01T13:38:36.828Z,18.88
2022-11-01T13:41:22.425Z,19.19
2022-11-01T13:44:05.366Z,19.35
2022-11-01T13:47:03.960Z,19.30
2022-11-01T13:49:55.551Z,19.36
2022-11-01T13:52:30.002Z,19.30
2022-11-01T13:55:32.500Z,19.22
2022-11-01T13:58:01.235Z,19.31
2022-11-01T14:00:52.027Z,19.32
2022-11-01T14:03:25.823Z,19.36
2022-11-01T14:06:12.110Z,19.01
2022-11-01T14:08:48.503Z,19.03
2022-11-01T14:11:49.938Z,19.16
2022-11-01T14:14:30.267Z,19.10
2022-11-01T14:17:16.704Z,19.27
2022-11-01T14:19:50.162Z,19.13
2022-11-01T14:22:25.229Z,19.12
2022-11-01T14:25:11.853Z,19.22
2022-11-01T14:27:50.494Z,19.49
2022-11-01T14:30:24.528Z,19.45
2022-11-01T14:33:03.046Z,19.43
2022-11-01T14:35:38.177Z,19.38
2022-11-01T14:38:18.740Z,19.17
2022-11-01T14:40:59.089Z,18.98
2022-11-01T14:43:36.172Z,18.84
2022-11-01T14:46:18.660Z,18.89
2022-11-01T14:49:19.351Z,19.05
2022-11-01T14:52:04.595Z,19.10
2022-11-01T14:54:39.901Z,19.04
2022-11-01T14:57:31.025Z,19.16
2022-11-01T15:00:18.045Z,19.03
2022-11-01T15:02:46.231Z,19.14
2022-11-01T15:05:16.968Z,19.21
2022-11-01T15:07:51.917Z,19.15
2022-11-01T15:10:20.244Z,19.13
2022-11-01T15:12:54.294Z,19.20
2022-11-01T15:15:33.420Z,19.31
2022-11-01T15:18:05.898Z,19.36
2022-11-01T15:20:48.542Z,19.27
2022-11-01T15:23:36.908Z,19.18
2022-11-01T15:26:13.153Z,19.16
2022-11-01T15:29:12.702Z,19.06
2022-11-01T15:31:50.621Z,19.02
2022-11-01T15:34:29.504Z,18.98
2022-11-01T15:37:00.081Z,18.94
2022-11-01T15:39:29.524Z,18.94
2022-11-01T15:41:58.069Z,18.92
2022-11-01T15:44:30.715Z,18.88
2022-11-01T15:47:02.010Z,18.84
2022-11-01T15:49:55.770Z,18.82
2022-11-01T15:52:31.798Z,18.84
2022-11-01T15:55:17.400Z,18.84
2022-11-01T15:58:08.977Z,18.81
2022-11-01T16:00:45.480Z,18.76
2022-11-01T16:03:41.421Z,18.74
2022-11-01T16:06:23.146Z,18.71
2022-11-01T16:08:56.163Z,18.64
2022-11-01T16:11:28.679Z,18.61
2022-11-01T16:14:25.080Z,18.56
2022-11-01T16:16:59.771Z,18.46
2022-11-01T16:19:38.999Z,18.42
2022-11-01T16:22:47.308Z,18.37
2022-11-01T16:25:24.131Z,18.38
2022-11-01T16:28:07.280Z,18.34
2022-11-01T16:30:52.815Z,18.36
2022-11-01T16:33:26.414Z,18.35
2022-11-01T16:36:33.523Z,18.35
2022-11-01T16:39:02.059Z,18.29
2022-11-01T16:41:39.615Z,18.22
2022-11-01T16:44:16.601Z,18.21
2022-11-01T16:46:44.905Z,18.17
2022-11-01T16:49:21.788Z,18.13
2022-11-01T16:51:51.750Z,18.07
2022-11-01T16:54:19.982Z,18.03
2022-11-01T16:56:54.878Z,17.97
2022-11-01T16:59:42.638Z,17.94
2022-11-01T17:02:30.263Z,17.94
2022-11-01T17:05:24.166Z,17.92
2022-11-01T17:07:52.274Z,17.91
2022-11-01T17:10:25.971Z,17.92
2022-11-01T17:12:57.810Z,17.97
2022-11-01T17:15:29.243Z,17.91
2022-11-01T17:17:59.478Z,17.88
2022-11-01T17:20:28.765Z,17.91
2022-11-01T17:22:58.623Z,17.95
2022-11-01T17:25:30.424Z,17.99
2022-11-01T17:27:58.887Z,17.99
2022-11-01T17:30:27.070Z,17.97
2022-11-01T17:32:55.178Z,17.97
2022-11-01T17:35:26.671Z,17.95
2022-11-01T17:37:55.909Z,17.92
2022-11-01T17:40:28.302Z,17.88
2022-11-01T17:42:56.509Z,17.88
2022-11-01T17:45:25.046Z,17.88
2022-11-01T17:47:54.812Z,17.88
2022-11-01T17:50:23.288Z,17.84
2022-11-01T17:52:51.930Z,17.83
2022-11-01T17:55:20.043Z,17.79
2022-11-01T17:57:49.442Z,17.76
2022-11-01T18:00:17.738Z,17.70
2022-11-01T18:02:46.085Z,17.66
2022-11-01T18:05:14.146Z,17.63
2022-11-01T18:07:45.226Z,17.61
2022-11-01T18:10:33.469Z,17.56
2022-11-01T18:13:20.180Z,17.56
2022-11-01T18:16:13.197Z,17.55
2022-11-01T18:19:14.900Z,17.56
2022-11-01T18:22:20.762Z,17.43
2022-11-01T18:25:28.686Z,17.36
2022-11-01T18:28:01.339Z,17.36
2022-11-01T18:30:30.641Z,17.33
2022-11-01T18:33:05.292Z,17.28
2022-11-01T18:35:39.163Z,17.25
2022-11-01T18:38:37.338Z,17.28
2022-11-01T18:41:12.975Z,17.31
2022-11-01T18:43:42.021Z,17.30
2022-11-01T18:46:26.196Z,17.25
2022-11-01T18:49:01.089Z,17.21
2022-11-01T18:51:33.413Z,17.20
2022-11-01T18:54:11.103Z,17.22
2022-11-01T18:56:43.714Z,17.23
2022-11-01T18:59:30.044Z,17.24
2022-11-01T19:02:12.960Z,17.23
2022-11-01T19:04:43.633Z,17.22
2022-11-01T19:07:19.248Z,17.18
2022-11-01T19:09:54.531Z,17.11
2022-11-01T19:12:44.724Z,17.03
2022-11-01T19:15:28.017Z,17.00
2022-11-01T19:18:04.951Z,16.96
2022-11-01T19:20:50.000Z,16.86
2022-11-01T19:23:45.936Z,16.80
2022-11-01T19:26:20.277Z,16.77
2022-11-01T19:28:51.821Z,16.70
2022-11-01T19:31:40.055Z,16.68
2022-11-01T19:34:23.231Z,16.65
2022-11-01T19:36:52.998Z,16.58
2022-11-01T19:39:23.045Z,16.50
2022-11-01T19:41:56.719Z,16.44
2022-11-01T19:44:26.961Z,16.43
2022-11-01T19:47:20.149Z,16.40
2022-11-01T19:49:49.646Z,16.40
2022-11-01T19:52:38.337Z,16.40
2022-11-01T19:55:48.093Z,16.38
2022-11-01T19:58:22.776Z,16.42
2022-11-01T20:01:09.008Z,16.41
2022-11-01T20:03:48.248Z,16.44
2022-11-01T20:06:31.461Z,16.42
2022-11-01T20:09:12.008Z,16.38
2022-11-01T20:11:40.068Z,16.33
2022-11-01T20:14:08.181Z,16.35
2022-11-01T20:16:36.257Z,16.36
2022-11-01T20:19:04.341Z,16.31
2022-11-01T20:21:32.402Z,16.28
2022-11-01T20:24:01.607Z,16.25
2022-11-01T20:26:30.149Z,16.22
2022-11-01T20:28:58.470Z,16.17
2022-11-01T20:31:27.366Z,16.11
2022-11-01T20:33:55.473Z,16.08
2022-11-01T20:36:23.653Z,16.08
2022-11-01T20:38:51.756Z,16.06
2022-11-01T20:41:20.418Z,16.03
2022-11-01T20:43:48.739Z,16.02
2022-11-01T20:46:16.848Z,16.00
2022-11-01T20:48:47.693Z,15.98
2022-11-01T20:51:15.746Z,15.93
2022-11-01T20:53:43.858Z,15.88
2022-11-01T20:56:12.274Z,15.84
2022-11-01T20:58:40.704Z,15.77
2022-11-01T21:01:17.482Z,15.71
2022-11-01T21:03:46.151Z,15.66
2022-11-01T21:06:17.921Z,15.62
2022-11-01T21:08:49.756Z,15.58
2022-11-01T21:11:44.146Z,15.55
2022-11-01T21:14:20.591Z,15.55
2022-11-01T21:16:49.277Z,15.53
2022-11-01T21:19:23.213Z,15.50
2022-11-01T21:22:00.321Z,15.51
2022-11-01T21:24:33.058Z,15.51
2022-11-01T21:27:12.549Z,15.51
2022-11-01T21:29:47.585Z,15.49
2022-11-01T21:32:35.011Z,15.43
2022-11-01T21:35:39.068Z,15.39
2022-11-01T21:38:40.542Z,15.35
2022-11-01T21:41:32.146Z,15.33
2022-11-01T21:44:29.625Z,15.12
2022-11-01T21:47:09.466Z,15.10
2022-11-01T21:49:38.005Z,15.04
2022-11-01T21:54:43.531Z,14.95
2022-11-01T21:57:13.650Z,14.92
2022-11-01T21:59:43.082Z,14.89
2022-11-01T22:02:14.019Z,14.93
2022-11-01T22:04:42.339Z,14.96
2022-11-01T22:07:11.260Z,14.93
2022-11-01T22:09:39.464Z,14.93
2022-11-01T22:12:08.418Z,14.92
2022-11-01T22:14:37.551Z,14.92
2022-11-01T22:17:05.663Z,14.92
2022-11-01T22:19:33.741Z,14.95
2022-11-01T22:22:02.156Z,14.97
2022-11-01T22:24:31.102Z,14.98
2022-11-01T22:26:59.306Z,14.95
2022-11-01T22:29:27.363Z,15.03
2022-11-01T22:31:55.471Z,15.05
2022-11-01T22:34:23.527Z,15.09
2022-11-01T22:36:51.631Z,15.12
2022-11-01T22:39:23.567Z,15.12
2022-11-01T22:41:52.003Z,15.15
2022-11-01T22:44:30.646Z,15.21
2022-11-01T22:47:02.099Z,15.23
2022-11-01T22:49:37.376Z,15.23
2022-11-01T22:52:16.104Z,15.22
2022-11-01T22:54:48.268Z,15.22
2022-11-01T22:57:22.852Z,15.20
2022-11-01T23:00:27.781Z,15.17
2022-11-01T23:03:02.851Z,15.19
2022-11-01T23:05:31.386Z,15.17
2022-11-01T23:08:41.946Z,15.18
2022-11-01T23:11:45.307Z,15.19
2022-11-01T23:14:36.525Z,15.12
2022-11-01T23:17:23.451Z,15.07
2022-11-01T23:19:56.091Z,15.02
2022-11-01T23:22:30.203Z,15.01
2022-11-01T23:24:58.377Z,15.01
2022-11-01T23:27:29.587Z,15.01
2022-11-01T23:30:00.542Z,15.00
2022-11-01T23:32:30.690Z,15.03
2022-11-01T23:35:20.587Z,14.99
2022-11-01T23:37:51.669Z,14.96
2022-11-01T23:40:22.278Z,14.92
2022-11-01T23:42:50.955Z,14.89
2022-11-01T23:45:31.059Z,14.88
2022-11-01T23:48:01.066Z,14.90
2022-11-01T23:50:54.115Z,14.88
2022-11-01T23:53:35.517Z,14.94
2022-11-01T23:56:09.095Z,14.97
2022-11-01T23:58:38.370Z,14.99
